createdAt,value
2018-02-17T00:01:38.743Z,16.53
2018-02-17T00:04:09.580Z,14.40
2018-02-17T00:06:40.512Z,19.47
2018-02-17T00:09:11.381Z,15.63
2018-02-17T00:11:42.237Z,16.33
2018-02-17T00:14:13.176Z,16.07
2018-02-17T00:16:44.083Z,16.67
2018-02-17T00:19:14.982Z,18.37
2018-02-17T00:21:45.867Z,15.30
2018-02-17T00:24:16.845Z,18.33
2018-02-17T00:26:47.734Z,15.82
2018-02-17T00:29:18.607Z,14.73
2018-02-17T00:31:49.553Z,18.43
2018-02-17T00:34:20.404Z,15.50
2018-02-17T00:36:51.249Z,16.93
2018-02-17T00:39:22.091Z,17.30
2018-02-17T00:41:52.969Z,16.57
2018-02-17T00:44:23.851Z,18.60
2018-02-17T00:46:54.713Z,15.50
2018-02-17T00:49:25.649Z,17.10
2018-02-17T00:51:56.539Z,15.97
2018-02-17T00:54:27.373Z,16.07
2018-02-17T00:56:58.358Z,15.47
2018-02-17T00:59:29.246Z,15.68
2018-02-17T01:02:00.193Z,14.63
2018-02-17T01:04:31.099Z,16.60
2018-02-17T01:07:01.981Z,14.97
2018-02-17T01:09:32.866Z,18.30
2018-02-17T01:12:03.765Z,15.53
2018-02-17T01:14:34.619Z,16.90
2018-02-17T01:17:05.566Z,16.53
2018-02-17T01:19:36.422Z,16.17
2018-02-17T01:22:07.267Z,15.50
2018-02-17T01:24:38.129Z,14.97
2018-02-17T01:27:09.030Z,15.77
2018-02-17T01:29:39.957Z,14.13
2018-02-17T01:32:10.832Z,14.73
2018-02-17T01:34:41.730Z,15.70
2018-02-17T01:37:12.589Z,15.40
2018-02-17T01:39:43.415Z,13.60
2018-02-17T01:42:14.258Z,15.00
2018-02-17T01:44:45.096Z,14.43
2018-02-17T01:47:15.898Z,14.57
2018-02-17T01:49:46.731Z,15.67
2018-02-17T01:52:17.585Z,16.20
2018-02-17T01:54:48.457Z,15.00
2018-02-17T01:57:19.364Z,15.47
2018-02-17T01:59:50.237Z,14.50
2018-02-17T02:02:21.122Z,15.70
2018-02-17T02:04:51.961Z,14.30
2018-02-17T02:07:22.797Z,13.10
2018-02-17T02:09:53.655Z,14.30
2018-02-17T02:12:24.574Z,13.43
2018-02-17T02:14:55.426Z,12.93
2018-02-17T02:17:27.474Z,14.00
2018-02-17T02:19:58.396Z,13.38
2018-02-17T02:22:29.226Z,14.70
2018-02-17T02:25:00.107Z,14.20
2018-02-17T02:27:30.963Z,15.33
2018-02-17T02:30:01.878Z,14.37
2018-02-17T02:32:32.718Z,14.10
2018-02-17T02:35:03.595Z,15.53
2018-02-17T02:37:34.394Z,15.50
2018-02-17T02:40:05.293Z,15.10
2018-02-17T02:42:36.096Z,15.37
2018-02-17T02:45:06.966Z,16.37
2018-02-17T02:47:37.786Z,12.70
2018-02-17T02:50:08.646Z,14.17
2018-02-17T02:52:39.452Z,14.40
2018-02-17T02:55:10.286Z,14.47
2018-02-17T02:57:41.125Z,14.57
2018-02-17T03:00:11.948Z,13.33
2018-02-17T03:02:42.798Z,15.07
2018-02-17T03:05:13.672Z,14.50
2018-02-17T03:07:44.559Z,14.77
2018-02-17T03:10:15.414Z,18.20
2018-02-17T03:12:46.238Z,16.00
2018-02-17T03:15:17.150Z,13.77
2018-02-17T03:17:47.989Z,15.00
2018-02-17T03:20:18.972Z,15.27
2018-02-17T03:22:49.823Z,13.50
2018-02-17T03:25:20.650Z,13.63
2018-02-17T03:27:51.552Z,14.90
2018-02-17T03:30:22.453Z,16.00
2018-02-17T03:32:53.290Z,16.20
2018-02-17T03:35:24.126Z,13.87
2018-02-17T03:37:55.047Z,15.20
2018-02-17T03:40:25.953Z,14.00
2018-02-17T03:42:56.837Z,14.50
2018-02-17T03:45:27.699Z,15.60
2018-02-17T03:47:58.591Z,14.60
2018-02-17T03:50:29.449Z,14.07
2018-02-17T03:53:00.289Z,15.27
2018-02-17T03:55:31.121Z,15.83
2018-02-17T03:58:01.978Z,15.43
2018-02-17T04:00:32.798Z,14.30
2018-02-17T04:03:03.669Z,15.03
2018-02-17T04:05:34.558Z,16.97
2018-02-17T04:08:05.466Z,16.67
2018-02-17T04:10:36.324Z,14.57
2018-02-17T04:13:07.177Z,13.53
2018-02-17T04:15:38.019Z,15.17
2018-02-17T04:18:08.896Z,14.90
2018-02-17T04:20:39.735Z,13.80
2018-02-17T04:23:11.582Z,16.40
2018-02-17T04:25:42.416Z,14.63
2018-02-17T04:28:13.269Z,15.30
2018-02-17T04:30:44.102Z,17.13
2018-02-17T04:33:14.971Z,15.73
2018-02-17T04:35:45.852Z,15.90
2018-02-17T04:38:16.722Z,16.43
2018-02-17T04:44:10.004Z,16.75
2018-02-17T04:46:44.832Z,16.50
2018-02-17T04:52:42.314Z,16.77
2018-02-17T04:55:18.094Z,15.05
2018-02-17T04:58:00.904Z,16.37
2018-02-17T05:00:33.779Z,17.90
2018-02-17T05:03:10.773Z,15.18
2018-02-17T05:05:56.559Z,16.05
2018-02-17T05:08:27.462Z,14.85
2018-02-17T05:10:58.313Z,15.07
2018-02-17T05:13:29.178Z,15.67
2018-02-17T05:16:06.049Z,15.37
2018-02-17T05:18:46.837Z,15.88
2018-02-17T05:21:17.704Z,15.68
2018-02-17T05:23:48.582Z,14.10
2018-02-17T05:26:19.437Z,15.23
2018-02-17T05:28:50.291Z,16.00
2018-02-17T05:31:21.173Z,15.40
2018-02-17T05:33:58.102Z,16.47
2018-02-17T05:36:30.794Z,13.65
2018-02-17T05:39:03.631Z,13.62
2018-02-17T05:41:37.329Z,11.60
2018-02-17T05:44:08.221Z,12.37
2018-02-17T05:46:41.928Z,11.80
2018-02-17T05:49:12.739Z,12.90
2018-02-17T05:51:43.605Z,12.90
2018-02-17T05:54:14.436Z,12.90
2018-02-17T05:56:45.489Z,14.23
2018-02-17T05:59:16.321Z,11.85
2018-02-17T06:01:47.724Z,12.30
2018-02-17T06:04:18.561Z,14.15
2018-02-17T06:06:49.485Z,13.20
2018-02-17T06:09:20.329Z,11.67
2018-02-17T06:11:51.206Z,12.00
2018-02-17T06:14:22.063Z,11.37
2018-02-17T06:16:52.978Z,12.03
2018-02-17T06:19:23.774Z,11.10
2018-02-17T06:21:54.607Z,12.00
2018-02-17T06:24:25.428Z,11.63
2018-02-17T06:26:56.275Z,10.00
2018-02-17T06:29:27.056Z,11.10
2018-02-17T06:31:57.956Z,11.40
2018-02-17T06:34:28.788Z,11.57
2018-02-17T06:36:59.622Z,13.03
2018-02-17T06:39:30.439Z,11.20
2018-02-17T06:42:01.254Z,12.20
2018-02-17T06:44:32.073Z,12.10
2018-02-17T06:47:02.914Z,10.90
2018-02-17T06:49:33.710Z,11.53
2018-02-17T06:52:04.594Z,12.50
2018-02-17T06:54:35.419Z,11.70
2018-02-17T06:57:06.241Z,10.20
2018-02-17T06:59:37.064Z,11.60
2018-02-17T07:02:07.892Z,11.13
2018-02-17T07:04:38.767Z,11.27
2018-02-17T07:07:09.594Z,10.70
2018-02-17T07:09:40.459Z,12.17
2018-02-17T07:12:11.207Z,11.30
2018-02-17T07:14:42.050Z,12.17
2018-02-17T07:17:12.875Z,10.40
2018-02-17T07:19:43.693Z,10.70
2018-02-17T07:22:14.518Z,11.50
2018-02-17T07:24:45.346Z,10.27
2018-02-17T07:27:16.177Z,11.70
2018-02-17T07:29:47.024Z,12.07
2018-02-17T07:32:17.860Z,12.10
2018-02-17T07:34:48.655Z,11.90
2018-02-17T07:37:19.512Z,14.17
2018-02-17T07:39:50.334Z,12.40
2018-02-17T07:42:21.189Z,11.70
2018-02-17T07:44:52.016Z,10.77
2018-02-17T07:47:23.022Z,12.50
2018-02-17T07:49:53.816Z,12.95
2018-02-17T07:52:24.655Z,12.17
2018-02-17T07:54:55.458Z,11.83
2018-02-17T07:57:26.317Z,12.60
2018-02-17T07:59:57.168Z,11.80
2018-02-17T08:02:28.021Z,13.37
2018-02-17T08:04:58.832Z,13.60
2018-02-17T08:07:29.710Z,13.67
2018-02-17T08:10:00.509Z,11.80
2018-02-17T08:12:31.340Z,11.43
2018-02-17T08:15:02.204Z,12.93
2018-02-17T08:17:33.026Z,12.93
2018-02-17T08:20:03.882Z,13.23
2018-02-17T08:22:34.739Z,12.97
2018-02-17T08:25:05.572Z,12.90
2018-02-17T08:27:37.327Z,12.23
2018-02-17T08:30:08.136Z,13.15
2018-02-17T08:32:38.937Z,12.10
2018-02-17T08:35:09.732Z,13.20
2018-02-17T08:37:40.544Z,9.90
2018-02-17T08:40:11.401Z,10.30
2018-02-17T08:42:42.181Z,12.83
2018-02-17T08:45:13.023Z,10.37
2018-02-17T08:47:43.830Z,12.37
2018-02-17T08:50:14.671Z,11.73
2018-02-17T08:52:45.450Z,11.80
2018-02-17T08:55:16.287Z,10.80
2018-02-17T08:57:47.131Z,11.90
2018-02-17T09:00:17.958Z,11.57
2018-02-17T09:02:49.860Z,11.73
2018-02-17T09:05:20.757Z,12.15
2018-02-17T09:07:51.621Z,11.83
2018-02-17T09:10:34.718Z,9.90
2018-02-17T09:13:05.568Z,12.05
2018-02-17T09:15:44.067Z,11.83
2018-02-17T09:18:15.010Z,11.73
2018-02-17T09:20:45.877Z,11.90
2018-02-17T09:23:16.710Z,11.90
2018-02-17T09:25:47.531Z,12.97
2018-02-17T09:28:18.406Z,12.50
2018-02-17T09:30:49.309Z,12.20
2018-02-17T09:33:20.180Z,13.60
2018-02-17T09:35:51.053Z,12.83
2018-02-17T09:38:21.843Z,13.90
2018-02-17T09:40:52.674Z,13.50
2018-02-17T09:43:23.521Z,12.77
2018-02-17T09:45:55.332Z,13.00
2018-02-17T09:48:26.154Z,12.00
2018-02-17T09:50:57.019Z,11.57
2018-02-17T09:53:27.901Z,12.10
2018-02-17T09:56:00.794Z,11.27
2018-02-17T09:58:31.622Z,12.07
2018-02-17T10:01:02.514Z,10.97
2018-02-17T10:03:34.137Z,12.70
2018-02-17T10:06:05.238Z,11.25
2018-02-17T10:08:36.122Z,11.30
2018-02-17T10:11:07.052Z,12.40
2018-02-17T10:13:37.951Z,11.30
2018-02-17T10:16:08.880Z,10.53
2018-02-17T10:18:39.907Z,11.40
2018-02-17T10:21:10.841Z,10.55
2018-02-17T10:23:41.678Z,11.80
2018-02-17T10:26:12.523Z,12.00
2018-02-17T10:28:43.411Z,11.70
2018-02-17T10:31:14.268Z,11.70
2018-02-17T10:33:45.130Z,11.63
2018-02-17T10:36:16.024Z,12.50
2018-02-17T10:38:46.882Z,11.57
2018-02-17T10:41:18.629Z,10.00
2018-02-17T10:43:49.475Z,10.52
2018-02-17T10:46:20.334Z,12.33
2018-02-17T10:48:51.184Z,10.20
2018-02-17T10:51:22.032Z,10.60
2018-02-17T10:53:52.941Z,10.90
2018-02-17T10:56:23.831Z,12.67
2018-02-17T10:58:54.690Z,11.00
2018-02-17T11:01:25.565Z,12.73
2018-02-17T11:03:56.395Z,10.47
2018-02-17T11:06:27.246Z,11.80
2018-02-17T11:08:58.081Z,11.43
2018-02-17T11:11:28.930Z,11.13
2018-02-17T11:13:59.767Z,11.97
2018-02-17T11:16:30.651Z,12.07
2018-02-17T11:19:01.534Z,12.20
2018-02-17T11:21:32.403Z,10.97
2018-02-17T11:24:03.250Z,10.87
2018-02-17T11:26:34.126Z,11.83
2018-02-17T11:29:05.837Z,11.63
2018-02-17T11:31:36.618Z,11.82
2018-02-17T11:34:07.415Z,11.13
2018-02-17T11:36:38.242Z,11.80
2018-02-17T11:39:09.137Z,11.00
2018-02-17T11:41:40.019Z,12.20
2018-02-17T11:44:10.892Z,11.83
2018-02-17T11:46:41.812Z,12.07
2018-02-17T11:49:12.707Z,11.30
2018-02-17T11:51:44.252Z,11.57
2018-02-17T11:54:15.118Z,11.80
2018-02-17T11:56:46.004Z,10.60
2018-02-17T11:59:16.873Z,10.10
2018-02-17T12:01:47.743Z,11.40
2018-02-17T12:04:18.614Z,11.63
2018-02-17T12:06:49.512Z,11.30
2018-02-17T12:09:20.360Z,14.17
2018-02-17T12:11:51.224Z,11.57
2018-02-17T12:14:22.330Z,12.30
2018-02-17T12:16:53.209Z,12.32
2018-02-17T12:19:24.106Z,13.73
2018-02-17T12:21:54.986Z,14.87
2018-02-17T12:24:25.823Z,14.30
2018-02-17T12:26:56.663Z,13.20
2018-02-17T12:29:27.513Z,13.07
2018-02-17T12:31:58.421Z,12.70
2018-02-17T12:34:29.275Z,12.53
2018-02-17T12:37:00.115Z,12.93
2018-02-17T12:39:30.939Z,14.23
2018-02-17T12:42:01.782Z,14.10
2018-02-17T12:44:32.691Z,14.37
2018-02-17T12:47:03.563Z,13.30
2018-02-17T12:49:34.396Z,14.50
2018-02-17T12:52:05.324Z,14.03
2018-02-17T12:54:36.178Z,14.40
2018-02-17T12:57:07.002Z,15.30
2018-02-17T12:59:37.859Z,15.03
2018-02-17T13:02:08.757Z,13.10
2018-02-17T13:04:39.643Z,14.23
2018-02-17T13:07:10.546Z,15.20
2018-02-17T13:09:41.392Z,14.17
2018-02-17T13:12:12.218Z,14.03
2018-02-17T13:14:43.064Z,14.60
2018-02-17T13:17:13.926Z,16.03
2018-02-17T13:19:44.759Z,16.00
2018-02-17T13:22:15.612Z,16.63
2018-02-17T13:24:46.457Z,13.77
2018-02-17T13:27:17.305Z,16.63
2018-02-17T13:29:48.114Z,15.23
2018-02-17T13:32:18.974Z,14.63
2018-02-17T13:34:49.849Z,15.07
2018-02-17T13:37:20.723Z,15.20
2018-02-17T13:39:51.624Z,14.17
2018-02-17T13:42:22.482Z,14.30
2018-02-17T13:44:53.331Z,14.43
2018-02-17T13:47:24.240Z,15.00
2018-02-17T13:49:55.077Z,15.10
2018-02-17T13:52:25.949Z,14.23
2018-02-17T13:54:56.745Z,14.67
2018-02-17T13:57:27.624Z,15.07
2018-02-17T13:59:58.499Z,14.60
2018-02-17T14:02:29.353Z,14.27
2018-02-17T14:05:00.233Z,15.30
2018-02-17T14:07:31.093Z,15.27
2018-02-17T14:10:01.942Z,15.23
2018-02-17T14:12:32.844Z,14.30
2018-02-17T14:15:03.701Z,15.10
2018-02-17T14:17:34.551Z,13.53
2018-02-17T14:20:05.419Z,15.67
2018-02-17T14:22:36.291Z,14.20
2018-02-17T14:25:07.152Z,13.73
2018-02-17T14:27:38.009Z,14.10
2018-02-17T14:30:08.850Z,15.67
2018-02-17T14:32:39.686Z,15.67
2018-02-17T14:35:10.558Z,14.17
2018-02-17T14:37:41.394Z,15.60
2018-02-17T14:40:12.441Z,15.30
2018-02-17T14:42:43.294Z,12.55
2018-02-17T14:45:14.127Z,16.23
2018-02-17T14:47:45.034Z,12.90
2018-02-17T14:50:15.931Z,13.90
2018-02-17T14:52:46.807Z,14.47
2018-02-17T14:55:17.678Z,15.03
2018-02-17T14:57:48.533Z,13.33
2018-02-17T15:00:19.384Z,15.37
2018-02-17T15:02:50.275Z,15.50
2018-02-17T15:05:21.120Z,14.70
2018-02-17T15:07:51.995Z,14.20
2018-02-17T15:10:22.826Z,15.80
2018-02-17T15:12:53.723Z,14.87
2018-02-17T15:15:24.640Z,15.13
2018-02-17T15:17:55.539Z,14.50
2018-02-17T15:20:26.376Z,16.93
2018-02-17T15:22:57.223Z,15.23
2018-02-17T15:25:28.073Z,17.87
2018-02-17T15:27:58.957Z,16.33
2018-02-17T15:30:29.842Z,16.80
2018-02-17T15:33:00.730Z,16.83
2018-02-17T15:35:31.561Z,17.20
2018-02-17T15:38:02.472Z,15.10
2018-02-17T15:40:33.309Z,16.47
2018-02-17T15:43:04.243Z,16.13
2018-02-17T15:45:35.090Z,15.97
2018-02-17T15:48:06.025Z,16.03
2018-02-17T15:50:36.887Z,14.10
2018-02-17T15:53:07.778Z,14.57
2018-02-17T15:55:38.555Z,13.60
2018-02-17T15:58:09.410Z,14.97
2018-02-17T16:00:40.239Z,13.37
2018-02-17T16:03:11.088Z,12.33
2018-02-17T16:05:41.954Z,14.03
2018-02-17T16:08:13.017Z,12.90
2018-02-17T16:10:45.906Z,12.65
2018-02-17T16:13:16.765Z,10.20
2018-02-17T16:15:47.625Z,9.80
2018-02-17T16:18:18.445Z,9.97
2018-02-17T16:20:49.297Z,8.90
2018-02-17T16:23:20.144Z,8.37
2018-02-17T16:25:50.962Z,10.10
2018-02-17T16:28:21.827Z,7.20
2018-02-17T16:30:52.631Z,7.80
2018-02-17T16:33:23.475Z,7.83
2018-02-17T16:35:54.279Z,7.70
2018-02-17T16:38:25.104Z,7.80
2018-02-17T16:40:56.112Z,6.83
2018-02-17T16:43:26.957Z,8.55
2018-02-17T16:45:57.787Z,7.73
2018-02-17T16:48:28.625Z,8.70
2018-02-17T16:50:59.458Z,8.43
2018-02-17T16:53:30.304Z,8.67
2018-02-17T16:56:01.199Z,8.93
2018-02-17T16:58:32.022Z,8.30
2018-02-17T17:01:02.812Z,8.30
2018-02-17T17:03:33.671Z,8.67
2018-02-17T17:06:04.481Z,9.50
2018-02-17T17:08:35.358Z,8.17
2018-02-17T17:11:06.931Z,8.27
2018-02-17T17:13:37.822Z,9.60
2018-02-17T17:16:08.620Z,9.23
2018-02-17T17:18:39.469Z,10.40
2018-02-17T17:21:10.298Z,10.50
2018-02-17T17:23:41.153Z,12.40
2018-02-17T17:26:11.972Z,12.50
2018-02-17T17:28:42.791Z,11.63
2018-02-17T17:31:13.628Z,12.93
2018-02-17T17:33:44.442Z,13.50
2018-02-17T17:36:15.278Z,13.70
2018-02-17T17:38:46.125Z,15.17
2018-02-17T17:41:16.970Z,15.17
2018-02-17T17:43:47.793Z,15.73
2018-02-17T17:46:18.646Z,17.67
2018-02-17T17:48:49.728Z,16.20
2018-02-17T17:51:20.582Z,17.27
2018-02-17T17:53:51.389Z,16.43
2018-02-17T17:56:22.224Z,17.80
2018-02-17T17:58:53.049Z,19.00
2018-02-17T18:01:23.841Z,17.13
2018-02-17T18:03:54.654Z,17.00
2018-02-17T18:06:25.515Z,17.70
2018-02-17T18:08:56.656Z,16.90
2018-02-17T18:11:27.532Z,17.85
2018-02-17T18:13:58.397Z,18.30
2018-02-17T18:16:29.238Z,18.47
2018-02-17T18:19:00.083Z,19.10
2018-02-17T18:21:30.942Z,18.50
2018-02-17T18:24:01.794Z,17.33
2018-02-17T18:26:32.643Z,17.57
2018-02-17T18:29:03.483Z,18.03
2018-02-17T18:31:34.348Z,17.53
2018-02-17T18:34:05.233Z,20.00
2018-02-17T18:36:36.095Z,18.73
2018-02-17T18:39:06.931Z,20.00
2018-02-17T18:41:37.814Z,20.03
2018-02-17T18:44:08.669Z,20.00
2018-02-17T18:46:39.564Z,18.53
2018-02-17T18:49:10.482Z,20.10
2018-02-17T18:51:41.290Z,19.23
2018-02-17T18:54:12.073Z,20.77
2018-02-17T18:56:43.038Z,19.27
2018-02-17T18:59:13.912Z,18.80
2018-02-17T19:01:44.773Z,20.63
2018-02-17T19:04:15.915Z,19.97
2018-02-17T19:06:46.782Z,22.37
2018-02-17T19:09:17.754Z,20.80
2018-02-17T19:11:48.692Z,21.20
2018-02-17T19:14:19.587Z,20.37
2018-02-17T19:16:50.491Z,20.53
2018-02-17T19:19:21.364Z,20.77
2018-02-17T19:21:52.226Z,22.37
2018-02-17T19:24:23.081Z,20.00
2018-02-17T19:26:53.922Z,20.67
2018-02-17T19:29:24.779Z,20.63
2018-02-17T19:31:55.604Z,22.23
2018-02-17T19:34:26.449Z,21.27
2018-02-17T19:36:57.288Z,20.90
2018-02-17T19:39:28.194Z,21.90
2018-02-17T19:41:59.036Z,21.77
2018-02-17T19:44:29.833Z,20.53
2018-02-17T19:47:00.636Z,20.53
2018-02-17T19:49:31.508Z,21.20
2018-02-17T19:52:02.409Z,22.37
2018-02-17T19:54:33.266Z,23.67
2018-02-17T19:57:04.066Z,22.20
2018-02-17T19:59:34.948Z,21.47
2018-02-17T20:02:05.797Z,22.30
2018-02-17T20:04:36.676Z,22.10
2018-02-17T20:07:07.565Z,23.20
2018-02-17T20:09:38.474Z,22.73
2018-02-17T20:12:09.360Z,22.93
2018-02-17T20:14:40.196Z,24.40
2018-02-17T20:17:11.073Z,23.30
2018-02-17T20:19:41.932Z,23.20
2018-02-17T20:22:12.787Z,24.40
2018-02-17T20:24:43.636Z,22.27
2018-02-17T20:27:14.526Z,24.73
2018-02-17T20:29:45.411Z,23.07
2018-02-17T20:32:16.261Z,24.67
2018-02-17T20:34:47.138Z,23.03
2018-02-17T20:37:18.238Z,23.10
2018-02-17T20:39:49.091Z,23.30
2018-02-17T20:42:19.927Z,22.17
2018-02-17T20:44:50.769Z,22.93
2018-02-17T20:47:21.609Z,22.40
2018-02-17T20:49:52.494Z,22.80
2018-02-17T20:52:24.336Z,24.53
2018-02-17T20:54:55.213Z,24.45
2018-02-17T20:57:26.033Z,23.83
2018-02-17T20:59:56.890Z,22.80
2018-02-17T21:02:27.759Z,22.40
2018-02-17T21:04:58.701Z,24.30
2018-02-17T21:07:29.538Z,23.23
2018-02-17T21:10:00.412Z,23.87
2018-02-17T21:12:31.242Z,22.30
2018-02-17T21:15:02.126Z,23.90
2018-02-17T21:17:32.958Z,24.30
2018-02-17T21:20:03.914Z,22.30
2018-02-17T21:22:34.715Z,22.80
2018-02-17T21:25:05.528Z,24.90
2018-02-17T21:27:36.350Z,22.90
2018-02-17T21:30:07.171Z,22.43
2018-02-17T21:32:38.033Z,24.40
2018-02-17T21:35:08.925Z,24.13
2018-02-17T21:37:39.736Z,25.60
2018-02-17T21:40:10.598Z,23.40
2018-02-17T21:42:41.414Z,24.87
2018-02-17T21:45:12.236Z,26.77
2018-02-17T21:47:43.094Z,24.90
2018-02-17T21:50:13.940Z,24.30
2018-02-17T21:52:44.758Z,23.13
2018-02-17T21:55:15.611Z,25.30
2018-02-17T21:57:46.394Z,23.50
2018-02-17T22:00:17.780Z,25.57
2018-02-17T22:02:48.707Z,26.02
2018-02-17T22:05:19.591Z,24.50
2018-02-17T22:07:50.480Z,23.73
2018-02-17T22:10:21.363Z,24.80
2018-02-17T22:12:52.218Z,23.83
2018-02-17T22:15:23.062Z,23.17
2018-02-17T22:17:53.872Z,27.07
2018-02-17T22:20:24.745Z,25.00
2018-02-17T22:22:55.606Z,26.07
2018-02-17T22:25:26.434Z,25.30
2018-02-17T22:27:57.273Z,27.20
2018-02-17T22:30:28.155Z,26.13
2018-02-17T22:32:58.957Z,22.00
2018-02-17T22:35:29.829Z,24.20
2018-02-17T22:38:00.662Z,24.27
2018-02-17T22:40:31.530Z,23.90
2018-02-17T22:43:02.385Z,23.10
2018-02-17T22:45:34.213Z,25.17
2018-02-17T22:48:05.142Z,25.45
2018-02-17T22:50:36.023Z,25.77
2018-02-17T22:53:06.842Z,27.20
2018-02-17T22:55:38.421Z,24.47
2018-02-17T22:58:09.300Z,23.10
2018-02-17T23:00:40.323Z,24.03
2018-02-17T23:03:11.192Z,22.58
2018-02-17T23:05:42.114Z,24.50
2018-02-17T23:08:20.115Z,25.00
2018-02-17T23:10:51.265Z,24.40
2018-02-17T23:13:22.119Z,25.08
2018-02-17T23:15:52.994Z,23.77
2018-02-17T23:18:23.918Z,26.23
2018-02-17T23:20:54.788Z,23.37
2018-02-17T23:23:25.607Z,25.20
2018-02-17T23:25:56.458Z,23.40
2018-02-17T23:28:27.274Z,21.63
2018-02-17T23:31:05.106Z,25.13
2018-02-17T23:33:35.938Z,23.67
2018-02-17T23:36:06.893Z,20.37
2018-02-17T23:38:37.733Z,24.57
2018-02-17T23:41:08.609Z,22.73
2018-02-17T23:43:39.470Z,23.00
2018-02-17T23:46:10.308Z,23.77
2018-02-17T23:48:41.160Z,21.63
2018-02-17T23:51:12.031Z,25.17
2018-02-17T23:53:42.856Z,23.30
2018-02-17T23:56:20.423Z,22.97
2018-02-17T23:58:51.286Z,22.90
